sensor_id;sensor_type;location;lat;lon;timestamp;pressure;altitude;pressure_sealevel;temperature;humidity
11223;BME280;5668;52.012;8.724;2023-11-21T00:02:28;99598.94;;;9.75;100.00
11223;BME280;5668;52.012;8.724;2023-11-21T00:04:55;99597.06;;;9.77;100.00
11223;BME280;5668;52.012;8.724;2023-11-21T00:07:22;99593.38;;;9.79;100.00
11223;BME280;5668;52.012;8.724;2023-11-21T00:09:50;99591.88;;;9.77;100.00
11223;BME280;5668;52.012;8.724;2023-11-21T00:12:17;99589.50;;;9.74;100.00
11223;BME280;5668;52.012;8.724;2023-11-21T00:14:44;99595.28;;;9.77;100.00
11223;BME280;5668;52.012;8.724;2023-11-21T00:17:11;99596.69;;;9.81;100.00
11223;BME280;5668;52.012;8.724;2023-11-21T00:19:40;99599.06;;;9.84;100.00
11223;BME280;5668;52.012;8.724;2023-11-21T00:22:08;99593.50;;;9.89;100.00
11223;BME280;5668;52.012;8.724;2023-11-21T00:24:36;99597.63;;;9.91;100.00
11223;BME280;5668;52.012;8.724;2023-11-21T00:27:03;99598.19;;;9.95;100.00
11223;BME280;5668;52.012;8.724;2023-11-21T00:29:32;99598.09;;;9.96;100.00
11223;BME280;5668;52.012;8.724;2023-11-21T00:31:59;99597.97;;;9.98;100.00
11223;BME280;5668;52.012;8.724;2023-11-21T00:34:26;99607.41;;;9.99;100.00
11223;BME280;5668;52.012;8.724;2023-11-21T00:36:55;99611.63;;;10.00;100.00
11223;BME280;5668;52.012;8.724;2023-11-21T00:39:22;99617.53;;;10.02;100.00
11223;BME280;5668;52.012;8.724;2023-11-21T00:41:50;99622.72;;;10.02;100.00
11223;BME280;5668;52.012;8.724;2023-11-21T00:44:18;99613.16;;;10.02;100.00
11223;BME280;5668;52.012;8.724;2023-11-21T00:46:45;99616.38;;;10.06;100.00
11223;BME280;5668;52.012;8.724;2023-11-21T00:49:13;99618.03;;;10.07;100.00
11223;BME280;5668;52.012;8.724;2023-11-21T00:51:40;99613.63;;;10.07;100.00
11223;BME280;5668;52.012;8.724;2023-11-21T00:54:09;99622.94;;;10.10;100.00
11223;BME280;5668;52.012;8.724;2023-11-21T00:56:37;99616.94;;;10.09;100.00
11223;BME280;5668;52.012;8.724;2023-11-21T00:59:04;99614.22;;;10.11;100.00
11223;BME280;5668;52.012;8.724;2023-11-21T01:01:31;99616.00;;;10.10;100.00
11223;BME280;5668;52.012;8.724;2023-11-21T01:03:58;99609.03;;;10.11;100.00
11223;BME280;5668;52.012;8.724;2023-11-21T01:06:26;99612.22;;;10.15;100.00
11223;BME280;5668;52.012;8.724;2023-11-21T01:08:53;99612.06;;;10.16;100.00
11223;BME280;5668;52.012;8.724;2023-11-21T01:11:22;99618.22;;;10.15;100.00
11223;BME280;5668;52.012;8.724;2023-11-21T01:13:49;99619.88;;;10.16;100.00
11223;BME280;5668;52.012;8.724;2023-11-21T01:16:16;99622.72;;;10.13;100.00
11223;BME280;5668;52.012;8.724;2023-11-21T01:18:44;99615.88;;;10.12;100.00
11223;BME280;5668;52.012;8.724;2023-11-21T01:21:11;99630.50;;;10.13;100.00
11223;BME280;5668;52.012;8.724;2023-11-21T01:23:38;99628.59;;;10.15;100.00
11223;BME280;5668;52.012;8.724;2023-11-21T01:26:06;99631.19;;;10.15;100.00
11223;BME280;5668;52.012;8.724;2023-11-21T01:28:35;99638.03;;;10.16;100.00
11223;BME280;5668;52.012;8.724;2023-11-21T01:31:03;99629.34;;;10.17;100.00
11223;BME280;5668;52.012;8.724;2023-11-21T01:33:30;99637.00;;;10.19;100.00
11223;BME280;5668;52.012;8.724;2023-11-21T01:35:58;99644.69;;;10.20;100.00
11223;BME280;5668;52.012;8.724;2023-11-21T01:38:26;99637.84;;;10.19;100.00
11223;BME280;5668;52.012;8.724;2023-11-21T01:40:53;99637.34;;;10.14;100.00
11223;BME280;5668;52.012;8.724;2023-11-21T01:43:20;99644.44;;;10.12;100.00
11223;BME280;5668;52.012;8.724;2023-11-21T01:45:49;99643.00;;;10.08;100.00
11223;BME280;5668;52.012;8.724;2023-11-21T01:48:17;99643.00;;;10.08;100.00
11223;BME280;5668;52.012;8.724;2023-11-21T01:50:44;99637.13;;;10.06;100.00
11223;BME280;5668;52.012;8.724;2023-11-21T01:53:13;99632.78;;;10.06;100.00
11223;BME280;5668;52.012;8.724;2023-11-21T01:55:41;99632.63;;;10.08;100.00
11223;BME280;5668;52.012;8.724;2023-11-21T01:58:10;99643.00;;;10.08;100.00
11223;BME280;5668;52.012;8.724;2023-11-21T02:00:38;99635.22;;;10.08;100.00
11223;BME280;5668;52.012;8.724;2023-11-21T02:03:07;99627.69;;;10.05;100.00
11223;BME280;5668;52.012;8.724;2023-11-21T02:05:36;99632.78;;;10.06;100.00
11223;BME280;5668;52.012;8.724;2023-11-21T02:08:03;99628.41;;;10.07;100.00
11223;BME280;5668;52.012;8.724;2023-11-21T02:10:31;99626.75;;;10.06;100.00
11223;BME280;5668;52.012;8.724;2023-11-21T02:12:59;99627.69;;;10.05;100.00
11223;BME280;5668;52.012;8.724;2023-11-21T02:15:28;99635.47;;;10.05;100.00
11223;BME280;5668;52.012;8.724;2023-11-21T02:17:56;99637.69;;;10.09;100.00
11223;BME280;5668;52.012;8.724;2023-11-21T02:20:25;99643.59;;;10.12;100.00
11223;BME280;5668;52.012;8.724;2023-11-21T02:22:57;99648.41;;;10.16;100.00
11223;BME280;5668;52.012;8.724;2023-11-21T02:25:25;99655.06;;;10.20;100.00
11223;BME280;5668;52.012;8.724;2023-11-21T02:27:54;99661.91;;;10.21;100.00
11223;BME280;5668;52.012;8.724;2023-11-21T02:30:21;99665.19;;;10.23;100.00
11223;BME280;5668;52.012;8.724;2023-11-21T02:32:49;99664.13;;;10.26;100.00
11223;BME280;5668;52.012;8.724;2023-11-21T02:35:18;99664.97;;;10.26;100.00
11223;BME280;5668;52.012;8.724;2023-11-21T02:37:47;99664.84;;;10.28;100.00
11223;BME280;5668;52.012;8.724;2023-11-21T02:40:18;99664.75;;;10.29;100.00
11223;BME280;5668;52.012;8.724;2023-11-21T02:42:46;99668.28;;;10.28;100.00
11223;BME280;5668;52.012;8.724;2023-11-21T02:45:14;99670.75;;;10.30;100.00
11223;BME280;5668;52.012;8.724;2023-11-21T02:47:42;99668.97;;;10.30;100.00
11223;BME280;5668;52.012;8.724;2023-11-21T02:50:10;99673.22;;;10.31;100.00
11223;BME280;5668;52.012;8.724;2023-11-21T02:52:37;99675.69;;;10.33;100.00
11223;BME280;5668;52.012;8.724;2023-11-21T02:55:06;99688.56;;;10.34;100.00
11223;BME280;5668;52.012;8.724;2023-11-21T02:57:35;99672.03;;;10.35;100.00
11223;BME280;5668;52.012;8.724;2023-11-21T03:05:17;99674.63;;;10.35;100.00
11223;BME280;5668;52.012;8.724;2023-11-21T03:07:44;99677.34;;;10.34;100.00
11223;BME280;5668;52.012;8.724;2023-11-21T03:10:12;99677.34;;;10.34;100.00
11223;BME280;5668;52.012;8.724;2023-11-21T03:12:41;99683.47;;;10.33;100.00
11223;BME280;5668;52.012;8.724;2023-11-21T03:15:10;99681.72;;;10.33;100.00
11223;BME280;5668;52.012;8.724;2023-11-21T03:17:37;99679.00;;;10.35;100.00
11223;BME280;5668;52.012;8.724;2023-11-21T03:20:06;99691.88;;;10.36;100.00
11223;BME280;5668;52.012;8.724;2023-11-21T03:22:36;99696.13;;;10.37;100.00
11223;BME280;5668;52.012;8.724;2023-11-21T03:25:05;99698.47;;;10.40;100.00
11223;BME280;5668;52.012;8.724;2023-11-21T03:27:32;99695.88;;;10.40;100.00
11223;BME280;5668;52.012;8.724;2023-11-21T03:30:01;99693.97;;;10.42;100.00
11223;BME280;5668;52.012;8.724;2023-11-21T03:32:29;99702.59;;;10.43;100.00
11223;BME280;5668;52.012;8.724;2023-11-21T03:34:59;99699.19;;;10.42;100.00
11223;BME280;5668;52.012;8.724;2023-11-21T03:37:27;99701.06;;;10.40;100.00
11223;BME280;5668;52.012;8.724;2023-11-21T03:39:55;99706.97;;;10.42;100.00
11223;BME280;5668;52.012;8.724;2023-11-21T03:42:22;99706.16;;;10.42;100.00
11223;BME280;5668;52.012;8.724;2023-11-21T03:44:49;99713.94;;;10.42;100.00
11223;BME280;5668;52.012;8.724;2023-11-21T03:47:18;99706.03;;;10.43;100.00
11223;BME280;5668;52.012;8.724;2023-11-21T03:49:46;99709.44;;;10.44;100.00
11223;BME280;5668;52.012;8.724;2023-11-21T03:52:13;99711.91;;;10.45;100.00
11223;BME280;5668;52.012;8.724;2023-11-21T03:54:41;99724.06;;;10.45;100.00
11223;BME280;5668;52.012;8.724;2023-11-21T03:57:09;99714.75;;;10.42;100.00
11223;BME280;5668;52.012;8.724;2023-11-21T03:59:39;99722.78;;;10.39;100.00
11223;BME280;5668;52.012;8.724;2023-11-21T04:02:06;99720.56;;;10.35;100.00
11223;BME280;5668;52.012;8.724;2023-11-21T04:04:36;99723.28;;;10.33;100.00
11223;BME280;5668;52.012;8.724;2023-11-21T04:07:03;99722.56;;;10.31;100.00
11223;BME280;5668;52.012;8.724;2023-11-21T04:09:31;99728.00;;;10.28;100.00
11223;BME280;5668;52.012;8.724;2023-11-21T04:12:00;99728.94;;;10.27;100.00
11223;BME280;5668;52.012;8.724;2023-11-21T04:14:27;99736.75;;;10.27;100.00
11223;BME280;5668;52.012;8.724;2023-11-21T04:16:55;99734.25;;;10.26;100.00
11223;BME280;5668;52.012;8.724;2023-11-21T04:19:22;99743.09;;;10.23;100.00
11223;BME280;5668;52.012;8.724;2023-11-21T04:21:50;99739.56;;;10.24;100.00
11223;BME280;5668;52.012;8.724;2023-11-21T04:24:18;99741.34;;;10.24;100.00
11223;BME280;5668;52.012;8.724;2023-11-21T04:26:45;99744.75;;;10.24;100.00
11223;BME280;5668;52.012;8.724;2023-11-21T04:29:12;99747.47;;;10.23;100.00
11223;BME280;5668;52.012;8.724;2023-11-21T04:31:40;99744.75;;;10.24;100.00
11223;BME280;5668;52.012;8.724;2023-11-21T04:34:07;99749.94;;;10.24;100.00
11223;BME280;5668;52.012;8.724;2023-11-21T04:36:35;99752.53;;;10.24;100.00
11223;BME280;5668;52.012;8.724;2023-11-21T04:39:04;99750.88;;;10.23;100.00
11223;BME280;5668;52.012;8.724;2023-11-21T04:41:32;99748.28;;;10.23;100.00
11223;BME280;5668;52.012;8.724;2023-11-21T04:43:59;99750.88;;;10.23;100.00
11223;BME280;5668;52.012;8.724;2023-11-21T04:46:27;99755.16;;;10.24;100.00
11223;BME280;5668;52.012;8.724;2023-11-21T04:48:55;99751.72;;;10.24;100.00
11223;BME280;5668;52.012;8.724;2023-11-21T04:51:22;99750.56;;;10.28;100.00
11223;BME280;5668;52.012;8.724;2023-11-21T04:53:49;99751.94;;;10.32;100.00
11223;BME280;5668;52.012;8.724;2023-11-21T04:56:18;99755.16;;;10.35;100.00
11223;BME280;5668;52.012;8.724;2023-11-21T04:58:46;99761.84;;;10.38;100.00
11223;BME280;5668;52.012;8.724;2023-11-21T05:01:13;99760.81;;;10.40;100.00
11223;BME280;5668;52.012;8.724;2023-11-21T05:03:41;99767.66;;;10.41;100.00
11223;BME280;5668;52.012;8.724;2023-11-21T05:06:10;99765.88;;;10.42;100.00
11223;BME280;5668;52.012;8.724;2023-11-21T05:08:37;99757.50;;;10.38;100.00
11223;BME280;5668;52.012;8.724;2023-11-21T05:11:05;99760.47;;;10.34;100.00
11223;BME280;5668;52.012;8.724;2023-11-21T05:13:35;99766.72;;;10.31;100.00
11223;BME280;5668;52.012;8.724;2023-11-21T05:16:03;99759.16;;;10.28;100.00
11223;BME280;5668;52.012;8.724;2023-11-21T05:18:33;99755.75;;;10.28;100.00
11223;BME280;5668;52.012;8.724;2023-11-21T05:21:01;99766.34;;;10.25;100.00
11223;BME280;5668;52.012;8.724;2023-11-21T05:23:29;99762.25;;;10.22;100.00
11223;BME280;5668;52.012;8.724;2023-11-21T05:25:56;99775.09;;;10.24;100.00
11223;BME280;5668;52.012;8.724;2023-11-21T05:28:24;99778.78;;;10.21;100.00
11223;BME280;5668;52.012;8.724;2023-11-21T05:30:52;99780.28;;;10.24;100.00
11223;BME280;5668;52.012;8.724;2023-11-21T05:33:20;99776.63;;;10.26;100.00
11223;BME280;5668;52.012;8.724;2023-11-21T05:35:48;99780.88;;;10.27;100.00
11223;BME280;5668;52.012;8.724;2023-11-21T05:38:15;99779.00;;;10.29;100.00
11223;BME280;5668;52.012;8.724;2023-11-21T05:40:42;99787.75;;;10.28;100.00
11223;BME280;5668;52.012;8.724;2023-11-21T05:43:10;99783.38;;;10.29;100.00
11223;BME280;5668;52.012;8.724;2023-11-21T05:45:37;99790.78;;;10.33;100.00
11223;BME280;5668;52.012;8.724;2023-11-21T05:48:06;99787.25;;;10.34;100.00
11223;BME280;5668;52.012;8.724;2023-11-21T05:50:34;99799.88;;;10.39;100.00
11223;BME280;5668;52.012;8.724;2023-11-21T05:53:01;99799.75;;;10.40;100.00
11223;BME280;5668;52.012;8.724;2023-11-21T05:55:28;99799.75;;;10.40;100.00
11223;BME280;5668;52.012;8.724;2023-11-21T05:57:55;99801.41;;;10.41;100.00
11223;BME280;5668;52.012;8.724;2023-11-21T06:00:23;99798.81;;;10.41;100.00
11223;BME280;5668;52.012;8.724;2023-11-21T06:02:52;99806.63;;;10.41;100.00
11223;BME280;5668;52.012;8.724;2023-11-21T06:05:22;99805.22;;;10.37;100.00
11223;BME280;5668;52.012;8.724;2023-11-21T06:07:50;99803.78;;;10.33;100.00
11223;BME280;5668;52.012;8.724;2023-11-21T06:10:20;99806.59;;;10.30;100.00
11223;BME280;5668;52.012;8.724;2023-11-21T06:12:49;99811.22;;;10.27;100.00
11223;BME280;5668;52.012;8.724;2023-11-21T06:15:17;99808.72;;;10.25;100.00
11223;BME280;5668;52.012;8.724;2023-11-21T06:17:45;99824.31;;;10.25;100.00
11223;BME280;5668;52.012;8.724;2023-11-21T06:20:16;99827.38;;;10.30;100.00
11223;BME280;5668;52.012;8.724;2023-11-21T06:22:47;99838.47;;;10.32;100.00
11223;BME280;5668;52.012;8.724;2023-11-21T06:25:16;99835.66;;;10.35;100.00
11223;BME280;5668;52.012;8.724;2023-11-21T06:27:44;99838.25;;;10.35;100.00
11223;BME280;5668;52.012;8.724;2023-11-21T06:30:13;99845.22;;;10.35;100.00
11223;BME280;5668;52.012;8.724;2023-11-21T06:32:42;99847.72;;;10.36;100.00
11223;BME280;5668;52.012;8.724;2023-11-21T06:35:11;99852.75;;;10.38;100.00
11223;BME280;5668;52.012;8.724;2023-11-21T06:37:39;99856.91;;;10.40;100.00
11223;BME280;5668;52.012;8.724;2023-11-21T06:40:09;99861.28;;;10.40;100.00
11223;BME280;5668;52.012;8.724;2023-11-21T06:42:39;99868.97;;;10.41;100.00
11223;BME280;5668;52.012;8.724;2023-11-21T06:45:08;99873.22;;;10.42;100.00
11223;BME280;5668;52.012;8.724;2023-11-21T06:47:36;99881.00;;;10.42;100.00
11223;BME280;5668;52.012;8.724;2023-11-21T06:50:07;99876.75;;;10.41;100.00
11223;BME280;5668;52.012;8.724;2023-11-21T06:52:35;99881.00;;;10.42;100.00
11223;BME280;5668;52.012;8.724;2023-11-21T06:55:02;99888.81;;;10.42;100.00
11223;BME280;5668;52.012;8.724;2023-11-21T06:57:32;99894.00;;;10.42;100.00
11223;BME280;5668;52.012;8.724;2023-11-21T06:59:59;99891.28;;;10.44;100.00
11223;BME280;5668;52.012;8.724;2023-11-21T07:02:27;99886.19;;;10.42;100.00
11223;BME280;5668;52.012;8.724;2023-11-21T07:04:55;99893.06;;;10.43;100.00
11223;BME280;5668;52.012;8.724;2023-11-21T07:07:22;99902.50;;;10.44;100.00
11223;BME280;5668;52.012;8.724;2023-11-21T07:09:49;99909.47;;;10.44;100.00
11223;BME280;5668;52.012;8.724;2023-11-21T07:12:18;99905.22;;;10.43;100.00
11223;BME280;5668;52.012;8.724;2023-11-21T07:14:46;99912.06;;;10.44;100.00
11223;BME280;5668;52.012;8.724;2023-11-21T07:17:14;99912.91;;;10.44;100.00
11223;BME280;5668;52.012;8.724;2023-11-21T07:19:43;99911.25;;;10.43;100.00
11223;BME280;5668;52.012;8.724;2023-11-21T07:22:11;99920.69;;;10.44;100.00
11223;BME280;5668;52.012;8.724;2023-11-21T07:24:40;99927.41;;;10.47;100.00
11223;BME280;5668;52.012;8.724;2023-11-21T07:27:07;99923.97;;;10.46;100.00
11223;BME280;5668;52.012;8.724;2023-11-21T07:29:34;99927.50;;;10.45;100.00
11223;BME280;5668;52.012;8.724;2023-11-21T07:32:03;99928.47;;;10.44;100.00
11223;BME280;5668;52.012;8.724;2023-11-21T07:34:31;99929.28;;;10.45;100.00
11223;BME280;5668;52.012;8.724;2023-11-21T07:36:58;99939.56;;;10.46;100.00
11223;BME280;5668;52.012;8.724;2023-11-21T07:39:26;99933.69;;;10.44;100.00
11223;BME280;5668;52.012;8.724;2023-11-21T07:41:53;99943.94;;;10.46;100.00
11223;BME280;5668;52.012;8.724;2023-11-21T07:44:20;99939.81;;;10.43;100.00
11223;BME280;5668;52.012;8.724;2023-11-21T07:46:48;99945.00;;;10.43;100.00
11223;BME280;5668;52.012;8.724;2023-11-21T07:49:17;99947.59;;;10.43;100.00
11223;BME280;5668;52.012;8.724;2023-11-21T07:51:46;99953.75;;;10.42;100.00
11223;BME280;5668;52.012;8.724;2023-11-21T07:54:13;99951.13;;;10.42;100.00
11223;BME280;5668;52.012;8.724;2023-11-21T07:56:43;99958.94;;;10.42;100.00
11223;BME280;5668;52.012;8.724;2023-11-21T07:59:11;99956.34;;;10.42;100.00
11223;BME280;5668;52.012;8.724;2023-11-21T08:01:40;99958.09;;;10.42;100.00
11223;BME280;5668;52.012;8.724;2023-11-21T08:04:09;99963.31;;;10.42;100.00
11223;BME280;5668;52.012;8.724;2023-11-21T08:06:37;99971.19;;;10.40;100.00
11223;BME280;5668;52.012;8.724;2023-11-21T08:09:04;99963.41;;;10.40;100.00
11223;BME280;5668;52.012;8.724;2023-11-21T08:11:35;99970.25;;;10.41;100.00
11223;BME280;5668;52.012;8.724;2023-11-21T08:14:05;99974.53;;;10.42;100.00
11223;BME280;5668;52.012;8.724;2023-11-21T08:16:32;99972.97;;;10.40;100.00
11223;BME280;5668;52.012;8.724;2023-11-21T08:18:59;99974.75;;;10.39;100.00
11223;BME280;5668;52.012;8.724;2023-11-21T08:21:27;99977.22;;;10.41;100.00
11223;BME280;5668;52.012;8.724;2023-11-21T08:23:56;99985.84;;;10.41;100.00
11223;BME280;5668;52.012;8.724;2023-11-21T08:26:23;99991.88;;;10.42;100.00
11223;BME280;5668;52.012;8.724;2023-11-21T08:28:50;99991.75;;;10.43;100.00
11223;BME280;5668;52.012;8.724;2023-11-21T08:31:24;99991.75;;;10.43;100.00
11223;BME280;5668;52.012;8.724;2023-11-21T08:33:52;99994.38;;;10.43;100.00
11223;BME280;5668;52.012;8.724;2023-11-21T08:36:20;99991.75;;;10.43;100.00
11223;BME280;5668;52.012;8.724;2023-11-21T08:38:49;99997.19;;;10.40;100.00
11223;BME280;5668;52.012;8.724;2023-11-21T08:41:19;100006.63;;;10.41;100.00
11223;BME280;5668;52.012;8.724;2023-11-21T08:43:49;100006.75;;;10.40;100.00
11223;BME280;5668;52.012;8.724;2023-11-21T08:46:16;100011.09;;;10.39;100.00
11223;BME280;5668;52.012;8.724;2023-11-21T08:48:44;100021.38;;;10.41;100.00
11223;BME280;5668;52.012;8.724;2023-11-21T08:51:12;100026.69;;;10.39;100.00
11223;BME280;5668;52.012;8.724;2023-11-21T08:53:40;100033.78;;;10.37;100.00
11223;BME280;5668;52.012;8.724;2023-11-21T08:56:08;100032.00;;;10.38;100.00
11223;BME280;5668;52.012;8.724;2023-11-21T08:58:37;100038.97;;;10.37;100.00
11223;BME280;5668;52.012;8.724;2023-11-21T09:01:05;100043.22;;;10.38;100.00
11223;BME280;5668;52.012;8.724;2023-11-21T09:03:33;100040.75;;;10.37;100.00
11223;BME280;5668;52.012;8.724;2023-11-21T09:06:00;100049.13;;;10.40;100.00
11223;BME280;5668;52.012;8.724;2023-11-21T09:08:28;100047.16;;;10.44;100.00
11223;BME280;5668;52.012;8.724;2023-11-21T09:10:55;100053.97;;;10.45;100.00
11223;BME280;5668;52.012;8.724;2023-11-21T09:13:23;100056.47;;;10.46;100.00
11223;BME280;5668;52.012;8.724;2023-11-21T09:15:52;100058.97;;;10.48;100.00
11223;BME280;5668;52.012;8.724;2023-11-21T09:18:19;100056.25;;;10.50;100.00
11223;BME280;5668;52.012;8.724;2023-11-21T09:20:47;100063.13;;;10.51;100.00
11223;BME280;5668;52.012;8.724;2023-11-21T09:23:14;100064.97;;;10.48;100.00
11223;BME280;5668;52.012;8.724;2023-11-21T09:25:41;100070.19;;;10.48;100.00
11223;BME280;5668;52.012;8.724;2023-11-21T09:28:12;100074.44;;;10.50;100.00
11223;BME280;5668;52.012;8.724;2023-11-21T09:30:40;100081.19;;;10.52;100.00
11223;BME280;5668;52.012;8.724;2023-11-21T09:33:09;100080.38;;;10.52;100.00
11223;BME280;5668;52.012;8.724;2023-11-21T09:35:37;100082.72;;;10.55;100.00
11223;BME280;5668;52.012;8.724;2023-11-21T09:38:05;100089.09;;;10.51;100.00
11223;BME280;5668;52.012;8.724;2023-11-21T09:40:36;100084.59;;;10.53;100.00
11223;BME280;5668;52.012;8.724;2023-11-21T09:43:06;100085.56;;;10.52;100.00
11223;BME280;5668;52.012;8.724;2023-11-21T09:45:36;100090.75;;;10.52;100.00
11223;BME280;5668;52.012;8.724;2023-11-21T09:48:05;100089.19;;;10.49;100.00
11223;BME280;5668;52.012;8.724;2023-11-21T09:50:36;100096.50;;;10.44;100.00
11223;BME280;5668;52.012;8.724;2023-11-21T09:53:11;100098.88;;;10.47;100.00
11223;BME280;5668;52.012;8.724;2023-11-21T09:55:42;100104.06;;;10.47;100.00
11223;BME280;5668;52.012;8.724;2023-11-21T09:58:10;100102.28;;;10.47;100.00
11223;BME280;5668;52.012;8.724;2023-11-21T10:00:41;100109.16;;;10.48;100.00
11223;BME280;5668;52.012;8.724;2023-11-21T10:03:09;100114.69;;;10.44;100.00
11223;BME280;5668;52.012;8.724;2023-11-21T10:05:38;100122.09;;;10.37;100.00
11223;BME280;5668;52.012;8.724;2023-11-21T10:08:08;100127.06;;;10.40;100.00
11223;BME280;5668;52.012;8.724;2023-11-21T10:10:37;100134.13;;;10.38;100.00
11223;BME280;5668;52.012;8.724;2023-11-21T10:13:07;100133.75;;;10.32;100.00
11223;BME280;5668;52.012;8.724;2023-11-21T10:15:38;100138.94;;;10.32;100.00
11223;BME280;5668;52.012;8.724;2023-11-21T10:18:10;100141.44;;;10.33;100.00
11223;BME280;5668;52.012;8.724;2023-11-21T10:20:39;100139.75;;;10.32;100.00
11223;BME280;5668;52.012;8.724;2023-11-21T10:23:06;100151.31;;;10.28;100.00
11223;BME280;5668;52.012;8.724;2023-11-21T10:25:37;100151.31;;;10.28;100.00
11223;BME280;5668;52.012;8.724;2023-11-21T10:28:05;100155.06;;;10.24;100.00
11223;BME280;5668;52.012;8.724;2023-11-21T10:30:34;100153.19;;;10.26;100.00
11223;BME280;5668;52.012;8.724;2023-11-21T10:33:03;100160.50;;;10.21;100.00
11223;BME280;5668;52.012;8.724;2023-11-21T10:35:44;100153.84;;;10.17;100.00
11223;BME280;5668;52.012;8.724;2023-11-21T10:38:17;100161.63;;;10.17;100.00
11223;BME280;5668;52.012;8.724;2023-11-21T10:40:46;100163.47;;;10.15;100.00
11223;BME280;5668;52.012;8.724;2023-11-21T10:43:14;100163.69;;;10.12;100.00
11223;BME280;5668;52.012;8.724;2023-11-21T10:45:42;100166.50;;;10.09;100.00
11223;BME280;5668;52.012;8.724;2023-11-21T10:48:12;100168.16;;;10.10;100.00
11223;BME280;5668;52.012;8.724;2023-11-21T10:50:43;100166.50;;;10.09;100.00
11223;BME280;5668;52.012;8.724;2023-11-21T10:53:11;100166.50;;;10.09;100.00
11223;BME280;5668;52.012;8.724;2023-11-21T10:55:39;100172.41;;;10.11;100.00
11223;BME280;5668;52.012;8.724;2023-11-21T10:58:07;100168.16;;;10.10;100.00
11223;BME280;5668;52.012;8.724;2023-11-21T11:00:38;100171.94;;;10.06;100.00
11223;BME280;5668;52.012;8.724;2023-11-21T11:03:06;100176.88;;;10.09;100.00
11223;BME280;5668;52.012;8.724;2023-11-21T11:05:42;100177.81;;;10.08;100.00
11223;BME280;5668;52.012;8.724;2023-11-21T11:08:13;100180.41;;;10.08;100.00
11223;BME280;5668;52.012;8.724;2023-11-21T11:10:45;100193.53;;;10.06;100.00
11223;BME280;5668;52.012;8.724;2023-11-21T11:13:13;100196.22;;;10.05;100.00
11223;BME280;5668;52.012;8.724;2023-11-21T11:15:41;100199.75;;;10.04;100.00
11223;BME280;5668;52.012;8.724;2023-11-21T11:18:09;100199.94;;;10.01;100.00
11223;BME280;5668;52.012;8.724;2023-11-21T11:20:40;100214.09;;;9.97;100.00
11223;BME280;5668;52.012;8.724;2023-11-21T11:23:23;100210.03;;;9.93;100.00
11223;BME280;5668;52.012;8.724;2023-11-21T11:26:10;100219.91;;;9.88;100.00
11223;BME280;5668;52.012;8.724;2023-11-21T11:28:47;100214.94;;;9.85;100.00
11223;BME280;5668;52.012;8.724;2023-11-21T11:31:25;100218.66;;;9.81;100.00
11223;BME280;5668;52.012;8.724;2023-11-21T11:34:01;100220.34;;;9.82;100.00
11223;BME280;5668;52.012;8.724;2023-11-21T11:36:39;100231.44;;;9.84;100.00
11223;BME280;5668;52.012;8.724;2023-11-21T11:39:30;100231.22;;;9.87;100.00
11223;BME280;5668;52.012;8.724;2023-11-21T11:41:58;100234.03;;;9.84;100.00
11223;BME280;5668;52.012;8.724;2023-11-21T11:44:49;100243.59;;;9.83;100.00
11223;BME280;5668;52.012;8.724;2023-11-21T11:47:21;100241.94;;;9.82;100.00
11223;BME280;5668;52.012;8.724;2023-11-21T11:49:57;100244.63;;;9.81;100.00
11223;BME280;5668;52.012;8.724;2023-11-21T11:52:33;100235.91;;;9.82;100.00
11223;BME280;5668;52.012;8.724;2023-11-21T11:55:03;100238.59;;;9.80;100.00
11223;BME280;5668;52.012;8.724;2023-11-21T11:57:31;100234.44;;;9.78;100.00
11223;BME280;5668;52.012;8.724;2023-11-21T12:00:16;100238.00;;;9.77;100.00
11223;BME280;5668;52.012;8.724;2023-11-21T12:02:46;100243.38;;;9.74;100.00
11223;BME280;5668;52.012;8.724;2023-11-21T12:05:15;100243.56;;;9.70;100.00
11223;BME280;5668;52.012;8.724;2023-11-21T12:07:50;100243.69;;;9.69;100.00
11223;BME280;5668;52.012;8.724;2023-11-21T12:10:22;100242.97;;;9.67;100.00
11223;BME280;5668;52.012;8.724;2023-11-21T12:12:52;100250.84;;;9.65;100.00
11223;BME280;5668;52.012;8.724;2023-11-21T12:15:20;100268.91;;;9.67;100.00
11223;BME280;5668;52.012;8.724;2023-11-21T12:17:48;100269.75;;;9.67;100.00
11223;BME280;5668;52.012;8.724;2023-11-21T12:20:19;100281.06;;;9.66;100.00
11223;BME280;5668;52.012;8.724;2023-11-21T12:22:48;100273.47;;;9.63;100.00
11223;BME280;5668;52.012;8.724;2023-11-21T12:25:16;100278.88;;;9.60;100.00
11223;BME280;5668;52.012;8.724;2023-11-21T12:27:46;100280.31;;;9.52;100.00
11223;BME280;5668;52.012;8.724;2023-11-21T12:30:16;100295.34;;;9.47;100.00
11223;BME280;5668;52.012;8.724;2023-11-21T12:32:47;100297.28;;;9.43;100.00
11223;BME280;5668;52.012;8.724;2023-11-21T12:35:15;100306.22;;;9.39;100.00
11223;BME280;5668;52.012;8.724;2023-11-21T12:37:45;100317.44;;;9.40;100.00
11223;BME280;5668;52.012;8.724;2023-11-21T12:40:15;100307.97;;;9.39;100.00
11223;BME280;5668;52.012;8.724;2023-11-21T12:42:45;100319.28;;;9.38;100.00
11223;BME280;5668;52.012;8.724;2023-11-21T12:45:21;100309.00;;;9.36;100.00
11223;BME280;5668;52.012;8.724;2023-11-21T12:47:53;100314.50;;;9.31;100.00
11223;BME280;5668;52.012;8.724;2023-11-21T12:50:22;100316.25;;;9.31;100.00
11223;BME280;5668;52.012;8.724;2023-11-21T12:52:53;100309.41;;;9.30;100.00
11223;BME280;5668;52.012;8.724;2023-11-21T12:55:21;100320.63;;;9.30;100.00
11223;BME280;5668;52.012;8.724;2023-11-21T12:57:51;100315.34;;;9.32;100.00
11223;BME280;5668;52.012;8.724;2023-11-21T13:00:28;100319.69;;;9.31;100.00
11223;BME280;5668;52.012;8.724;2023-11-21T13:02:57;100325.59;;;9.33;100.00
11223;BME280;5668;52.012;8.724;2023-11-21T13:05:26;100330.91;;;9.32;100.00
11223;BME280;5668;52.012;8.724;2023-11-21T13:07:54;100338.84;;;9.29;99.99
11223;BME280;5668;52.012;8.724;2023-11-21T13:10:24;100331.25;;;9.26;100.00
11223;BME280;5668;52.012;8.724;2023-11-21T13:12:56;100346.94;;;9.24;99.83